Time;durP1;ratioP1;P1;durP2;ratioP2;P2;SDS_P1;SDS_P2;PMS_P1;PMS_P2;Temp;Humidity;BMP_temperature;BMP_pressure;BME280_temperature;BME280_humidity;BME280_pressure;Samples;Min_cycle;Max_cycle;Signal;HPM_P1;HPM_P2
2022/05/06 00:00:57;;;;;;;3.80;2.20;;;;;;;;;;2100251;28;20070;-47
2022/05/06 00:01:58;;;;;;;8.45;2.38;;;;;;;;;;2097594;28;20124;-48
2022/05/06 00:02:59;;;;;;;5.43;2.10;;;;;;;;;;2097433;28;20052;-47
2022/05/06 00:04:00;;;;;;;3.05;2.00;;;;;;;;;;2097382;28;20405;-47
2022/05/06 00:05:02;;;;;;;3.50;1.97;;;;;;;;;;2097374;28;20040;-48
2022/05/06 00:06:03;;;;;;;4.65;2.20;;;;;;;;;;2097556;28;20364;-48
2022/05/06 00:07:05;;;;;;;5.30;2.35;;;;;;;;;;2097500;28;20387;-48
2022/05/06 00:08:05;;;;;;;;;;;;;;;;;;2097871;28;20447;-49
2022/05/06 00:09:06;;;;;;;4.70;2.08;;;;;;;;;;2097487;28;20010;-57
2022/05/06 00:10:09;;;;;;;5.63;2.40;;;;;;;;;;2097410;28;20488;-57
2022/05/06 00:11:11;;;;;;;2.85;2.05;;;;;;;;;;2097390;28;20405;-57
2022/05/06 00:12:13;;;;;;;5.50;2.50;;;;;;;;;;2097343;28;20401;-57
2022/05/06 00:13:14;;;;;;;3.55;2.20;;;;;;;;;;2097460;28;20071;-57
2022/05/06 00:14:15;;;;;;;5.97;2.55;;;;;;;;;;2097337;28;20580;-57
2022/05/06 00:15:16;;;;;;;4.97;2.50;;;;;;;;;;2101068;28;20044;-57
2022/05/06 00:16:18;;;;;;;5.03;2.55;;;;;;;;;;2105789;28;20090;-57
2022/05/06 00:17:19;;;;;;;3.65;2.28;;;;;;;;;;2105758;28;20059;-57
2022/05/06 00:18:20;;;;;;;4.82;2.35;;;;;;;;;;2105530;28;20127;-57
2022/05/06 00:19:22;;;;;;;5.05;1.90;;;;;;;;;;2097493;28;20276;-57
2022/05/06 00:20:23;;;;;;;3.22;1.88;;;;;;;;;;2097296;28;20052;-57
2022/05/06 00:21:24;;;;;;;4.40;2.13;;;;;;;;;;2097402;28;20421;-57
2022/05/06 00:22:25;;;;;;;3.08;2.10;;;;;;;;;;2097323;28;20467;-57
2022/05/06 00:23:27;;;;;;;6.40;2.30;;;;;;;;;;2097329;28;20127;-57
2022/05/06 00:24:28;;;;;;;4.50;2.55;;;;;;;;;;2097427;28;20139;-57
2022/05/06 00:25:29;;;;;;;3.85;2.33;;;;;;;;;;2097317;28;20127;-57
2022/05/06 00:26:31;;;;;;;6.35;2.30;;;;;;;;;;2097462;28;20056;-57
2022/05/06 00:27:32;;;;;;;4.83;2.87;;;;;;;;;;2097361;28;20132;-57
2022/05/06 00:28:33;;;;;;;3.90;2.13;;;;;;;;;;2097291;28;20372;-57
2022/05/06 00:29:34;;;;;;;2.72;2.28;;;;;;;;;;2097314;28;20060;-57
2022/05/06 00:30:35;;;;;;;4.05;2.50;;;;;;;;;;2097400;28;20124;-57
2022/05/06 00:31:36;;;;;;;3.40;2.00;;;;;;;;;;2097356;28;20056;-57
2022/05/06 00:32:37;;;;;;;4.93;2.08;;;;;;;;;;2097237;28;20053;-57
2022/05/06 00:33:39;;;;;;;3.58;2.00;;;;;;;;;;2097309;28;20102;-57
2022/05/06 00:34:40;;;;;;;3.88;2.22;;;;;;;;;;2096530;28;20048;-57
2022/05/06 00:35:41;;;;;;;3.55;2.25;;;;;;;;;;2096998;28;20049;-57
2022/05/06 00:36:42;;;;;;;4.18;2.30;;;;;;;;;;2097470;28;20123;-57
2022/05/06 00:37:44;;;;;;;5.05;2.30;;;;;;;;;;2097278;28;20117;-57
2022/05/06 00:38:45;;;;;;;3.63;2.08;;;;;;;;;;2097132;28;20569;-57
2022/05/06 00:39:46;;;;;;;4.80;2.43;;;;;;;;;;2097266;28;20053;-57
2022/05/06 00:40:47;;;;;;;5.88;2.60;;;;;;;;;;2097362;28;20131;-58
2022/05/06 00:41:52;;;;;;;5.03;2.73;;;;;;;;;;2097271;28;20052;-57
2022/05/06 00:42:52;;;;;;;3.97;2.50;;;;;;;;;;2097320;28;20127;-57
2022/05/06 00:43:54;;;;;;;5.25;2.38;;;;;;;;;;2097462;28;20044;-58
2022/05/06 00:44:55;;;;;;;3.50;1.92;;;;;;;;;;2097368;28;20132;-57
2022/05/06 00:45:56;;;;;;;2.85;1.75;;;;;;;;;;2097146;28;20036;-57
2022/05/06 00:46:58;;;;;;;4.60;2.58;;;;;;;;;;2097438;28;20140;-57
2022/05/06 00:47:59;;;;;;;;;;;;;;;;;;2097660;28;20050;-57
2022/05/06 00:49:01;;;;;;;4.63;2.30;;;;;;;;;;2097243;28;20286;-57
2022/05/06 00:50:02;;;;;;;3.33;2.25;;;;;;;;;;2097223;28;20127;-57
2022/05/06 00:51:03;;;;;;;4.60;2.50;;;;;;;;;;2097157;28;20128;-57
2022/05/06 00:52:06;;;;;;;3.42;2.25;;;;;;;;;;2097131;28;20796;-57
2022/05/06 00:53:08;;;;;;;3.58;2.08;;;;;;;;;;2097236;28;20093;-57
2022/05/06 00:54:09;;;;;;;5.18;2.17;;;;;;;;;;2097216;28;20128;-56
2022/05/06 00:55:11;;;;;;;3.70;2.08;;;;;;;;;;2097248;28;20561;-57
2022/05/06 00:56:12;;;;;;;4.18;2.45;;;;;;;;;;2097159;28;20079;-57
2022/05/06 00:57:14;;;;;;;7.03;3.15;;;;;;;;;;2097065;28;20401;-57
2022/05/06 00:58:15;;;;;;;4.78;2.10;;;;;;;;;;2097229;28;20109;-57
2022/05/06 00:59:16;;;;;;;4.43;2.42;;;;;;;;;;2097033;28;20119;-57
2022/05/06 01:00:20;;;;;;;3.60;2.22;;;;;;;;;;2097047;28;20140;-57
2022/05/06 01:01:22;;;;;;;4.38;2.28;;;;;;;;;;2097153;28;20048;-57
2022/05/06 01:02:23;;;;;;;4.88;2.45;;;;;;;;;;2097142;28;20513;-57
2022/05/06 01:03:30;;;;;;;3.58;2.13;;;;;;;;;;2097009;28;20075;-57
2022/05/06 01:04:31;;;;;;;;;;;;;;;;;;2097606;28;20524;-57
2022/05/06 01:05:32;;;;;;;8.70;2.30;;;;;;;;;;2097174;28;19932;-57
2022/05/06 01:06:35;;;;;;;3.38;2.40;;;;;;;;;;2097247;28;20040;-57
2022/05/06 01:07:36;;;;;;;4.65;2.33;;;;;;;;;;2097100;28;20408;-57
2022/05/06 01:08:38;;;;;;;4.83;2.10;;;;;;;;;;2097037;28;20044;-57
2022/05/06 01:09:39;;;;;;;;;;;;;;;;;;2097678;28;20436;-57
2022/05/06 01:10:41;;;;;;;5.00;2.13;;;;;;;;;;2096991;28;19920;-57
2022/05/06 01:11:42;;;;;;;5.68;2.70;;;;;;;;;;2102274;28;20623;-57
2022/05/06 01:12:44;;;;;;;4.03;2.22;;;;;;;;;;2105392;28;20405;-57
2022/05/06 01:13:45;;;;;;;5.07;2.63;;;;;;;;;;2105541;28;20087;-57
2022/05/06 01:14:47;;;;;;;4.60;2.50;;;;;;;;;;2105492;28;20054;-57
2022/05/06 01:15:48;;;;;;;4.00;2.25;;;;;;;;;;2105408;28;20482;-57
2022/05/06 01:16:49;;;;;;;4.82;2.30;;;;;;;;;;2105495;28;20048;-57
2022/05/06 01:17:50;;;;;;;6.38;2.65;;;;;;;;;;2105531;28;20067;-57
2022/05/06 01:18:52;;;;;;;4.43;2.42;;;;;;;;;;2100851;28;20127;-57
2022/05/06 01:19:53;;;;;;;6.07;3.03;;;;;;;;;;2097099;28;20056;-57
2022/05/06 01:20:56;;;;;;;5.78;2.33;;;;;;;;;;2097000;28;20049;-57
2022/05/06 01:21:57;;;;;;;4.60;2.45;;;;;;;;;;2097005;28;20072;-56
2022/05/06 01:22:59;;;;;;;3.47;2.45;;;;;;;;;;2097114;28;20098;-57
2022/05/06 01:24:00;;;;;;;;;;;;;;;;;;2097379;28;20510;-57
2022/05/06 01:25:01;;;;;;;4.20;2.20;;;;;;;;;;2097026;28;19920;-57
2022/05/06 01:26:02;;;;;;;4.57;2.70;;;;;;;;;;2097147;28;20045;-57
2022/05/06 01:27:04;;;;;;;4.33;2.20;;;;;;;;;;2097046;28;20375;-57
2022/05/06 01:28:06;;;;;;;3.85;2.00;;;;;;;;;;2097110;28;20060;-57
2022/05/06 01:29:09;;;;;;;4.25;2.50;;;;;;;;;;2097070;28;20047;-57
2022/05/06 01:30:12;;;;;;;3.45;2.38;;;;;;;;;;2096924;28;20466;-57
2022/05/06 01:31:19;;;;;;;4.93;2.33;;;;;;;;;;2096941;28;20128;-57
2022/05/06 01:32:22;;;;;;;4.43;2.70;;;;;;;;;;2097250;28;20557;-57
2022/05/06 01:33:24;;;;;;;3.97;2.20;;;;;;;;;;2097110;28;20044;-57
2022/05/06 01:34:24;;;;;;;;;;;;;;;;;;2097322;28;20056;-57
2022/05/06 01:35:27;;;;;;;3.58;2.08;;;;;;;;;;2096869;28;19924;-57
2022/05/06 01:36:28;;;;;;;4.70;2.55;;;;;;;;;;2097097;28;20174;-57
2022/05/06 01:37:30;;;;;;;5.10;2.03;;;;;;;;;;2096938;28;20045;-57
2022/05/06 01:38:34;;;;;;;5.32;3.25;;;;;;;;;;2096845;28;20105;-57
2022/05/06 01:39:36;;;;;;;5.20;2.58;;;;;;;;;;2096966;28;20044;-57
2022/05/06 01:40:39;;;;;;;5.65;2.50;;;;;;;;;;2096929;28;20117;-57
2022/05/06 01:41:43;;;;;;;7.50;2.10;;;;;;;;;;2096916;28;20072;-57
2022/05/06 01:42:44;;;;;;;5.63;2.83;;;;;;;;;;2097025;28;20101;-57
2022/05/06 01:43:47;;;;;;;6.32;2.80;;;;;;;;;;2096858;28;20041;-57
2022/05/06 01:44:50;;;;;;;5.63;2.25;;;;;;;;;;2097043;28;20128;-57
2022/05/06 01:45:56;;;;;;;6.25;3.17;;;;;;;;;;2097071;28;20163;-57
2022/05/06 01:46:58;;;;;;;4.93;2.88;;;;;;;;;;2098413;28;20402;-57
2022/05/06 01:48:01;;;;;;;6.03;3.10;;;;;;;;;;2098302;28;20481;-57
2022/05/06 01:49:02;;;;;;;5.35;2.70;;;;;;;;;;2098227;28;20040;-57
2022/05/06 01:50:04;;;;;;;5.10;2.72;;;;;;;;;;2098386;28;20123;-57
2022/05/06 01:51:07;;;;;;;5.68;3.00;;;;;;;;;;2098338;28;20037;-57
2022/05/06 01:52:10;;;;;;;3.97;2.88;;;;;;;;;;2098442;28;20050;-57
2022/05/06 01:53:14;;;;;;;7.18;2.67;;;;;;;;;;2098413;28;20127;-49
2022/05/06 01:54:15;;;;;;;5.72;2.80;;;;;;;;;;2098320;28;20048;-48
2022/05/06 01:55:17;;;;;;;6.53;2.67;;;;;;;;;;2098332;28;20156;-47
2022/05/06 01:56:18;;;;;;;9.90;2.92;;;;;;;;;;2098244;28;20527;-49
2022/05/06 01:57:19;;;;;;;5.68;2.63;;;;;;;;;;2098356;28;20048;-49
2022/05/06 01:58:20;;;;;;;4.63;2.35;;;;;;;;;;2098284;28;20127;-47
2022/05/06 01:59:21;;;;;;;5.10;2.83;;;;;;;;;;2098354;28;20143;-47
2022/05/06 02:00:22;;;;;;;6.57;3.20;;;;;;;;;;2098409;28;20525;-48
2022/05/06 02:01:23;;;;;;;6.45;2.80;;;;;;;;;;2098380;28;20600;-47
2022/05/06 02:02:25;;;;;;;5.07;2.53;;;;;;;;;;2098287;28;20052;-49
2022/05/06 02:06:05;;;;;;;5.20;3.22;;;;;;;;;;2098395;28;20532;-48
2022/05/06 02:07:06;;;;;;;4.35;2.65;;;;;;;;;;2098211;28;20397;-47
2022/05/06 02:08:08;;;;;;;5.50;2.63;;;;;;;;;;2105100;28;20079;-47
2022/05/06 02:09:10;;;;;;;5.28;2.88;;;;;;;;;;2106410;28;20127;-47
2022/05/06 02:10:11;;;;;;;5.45;3.05;;;;;;;;;;2106511;28;20119;-47
2022/05/06 02:11:12;;;;;;;5.75;2.75;;;;;;;;;;2106469;28;20151;-48
2022/05/06 02:12:13;;;;;;;5.65;2.85;;;;;;;;;;2106563;28;20040;-47
2022/05/06 02:13:14;;;;;;;6.10;2.88;;;;;;;;;;2106472;28;20572;-47
2022/05/06 02:14:16;;;;;;;5.80;2.97;;;;;;;;;;2106456;28;20051;-47
2022/05/06 02:15:18;;;;;;;5.13;2.70;;;;;;;;;;2106591;28;20351;-47
2022/05/06 02:16:20;;;;;;;7.00;3.00;;;;;;;;;;2106516;28;20588;-49
2022/05/06 02:17:21;;;;;;;4.03;2.75;;;;;;;;;;2106748;28;20048;-47
2022/05/06 02:18:23;;;;;;;5.80;2.63;;;;;;;;;;2105990;28;20036;-49
2022/05/06 02:19:24;;;;;;;7.88;3.22;;;;;;;;;;2098087;28;20306;-49
2022/05/06 02:20:25;;;;;;;7.67;2.57;;;;;;;;;;2097963;28;20056;-49
2022/05/06 02:21:26;;;;;;;6.80;3.15;;;;;;;;;;2098178;28;20053;-47
2022/05/06 02:22:29;;;;;;;6.67;2.87;;;;;;;;;;2098099;28;20052;-48
2022/05/06 02:23:30;;;;;;;7.20;3.10;;;;;;;;;;2098136;28;20275;-49
2022/05/06 02:24:31;;;;;;;6.63;2.80;;;;;;;;;;2098082;28;20457;-48
2022/05/06 02:25:33;;;;;;;5.70;3.00;;;;;;;;;;2098109;28;20589;-47
2022/05/06 02:26:34;;;;;;;6.55;3.08;;;;;;;;;;2098164;28;20131;-48
2022/05/06 02:27:35;;;;;;;4.93;2.67;;;;;;;;;;2098082;28;20417;-47
2022/05/06 02:28:36;;;;;;;7.68;3.28;;;;;;;;;;2097988;28;20387;-47
2022/05/06 02:29:37;;;;;;;5.85;2.50;;;;;;;;;;2098018;28;20055;-49
2022/05/06 02:33:23;;;;;;;7.28;3.13;;;;;;;;;;2098159;28;20044;-46
2022/05/06 02:34:24;;;;;;;6.20;3.30;;;;;;;;;;2098136;28;20294;-47
2022/05/06 02:35:25;;;;;;;6.05;3.25;;;;;;;;;;2097995;28;20049;-48
2022/05/06 02:36:27;;;;;;;7.43;3.42;;;;;;;;;;2098139;28;20131;-47
2022/05/06 02:37:27;;;;;;;4.57;2.53;;;;;;;;;;2098103;28;20102;-47
2022/05/06 02:38:29;;;;;;;5.13;3.37;;;;;;;;;;2097900;28;20102;-48
2022/05/06 02:39:30;;;;;;;7.03;3.53;;;;;;;;;;2098001;28;20521;-47
2022/05/06 02:40:31;;;;;;;5.95;3.42;;;;;;;;;;2098095;28;20055;-48
2022/05/06 02:41:32;;;;;;;9.07;3.47;;;;;;;;;;2097986;28;20048;-47
2022/05/06 02:42:33;;;;;;;5.70;2.40;;;;;;;;;;2097995;28;20044;-50
2022/05/06 02:43:35;;;;;;;7.65;3.55;;;;;;;;;;2098042;28;20127;-47
2022/05/06 02:44:37;;;;;;;6.95;3.70;;;;;;;;;;2098011;28;20051;-47
2022/05/06 02:45:38;;;;;;;7.45;2.95;;;;;;;;;;2098187;28;20520;-57
2022/05/06 02:46:39;;;;;;;4.70;2.90;;;;;;;;;;2097926;28;20076;-58
2022/05/06 02:47:40;;;;;;;6.57;3.47;;;;;;;;;;2097957;28;20735;-57
2022/05/06 02:48:41;;;;;;;8.07;3.40;;;;;;;;;;2097959;28;20055;-57
2022/05/06 02:49:42;;;;;;;7.82;3.22;;;;;;;;;;2097787;28;20148;-57
2022/05/06 02:50:43;;;;;;;5.30;3.22;;;;;;;;;;2098110;28;20044;-57
2022/05/06 02:51:44;;;;;;;7.50;3.38;;;;;;;;;;2097947;28;20102;-57
2022/05/06 02:52:45;;;;;;;5.15;2.92;;;;;;;;;;2098097;28;20049;-57
2022/05/06 02:53:46;;;;;;;8.57;3.33;;;;;;;;;;2097826;28;20487;-58
2022/05/06 02:54:48;;;;;;;6.18;2.60;;;;;;;;;;2098047;28;20048;-57
2022/05/06 02:55:50;;;;;;;7.38;3.92;;;;;;;;;;2097844;28;20044;-57
2022/05/06 02:56:51;;;;;;;9.07;3.35;;;;;;;;;;2098037;28;20055;-57
2022/05/06 02:57:52;;;;;;;8.53;3.60;;;;;;;;;;2097145;28;20052;-57
2022/05/06 02:58:53;;;;;;;6.78;3.53;;;;;;;;;;2097744;28;20480;-57
2022/05/06 02:59:54;;;;;;;8.53;4.77;;;;;;;;;;2098009;28;20041;-57
2022/05/06 03:00:55;;;;;;;5.80;3.72;;;;;;;;;;2097989;28;20405;-57
2022/05/06 03:01:56;;;;;;;8.55;3.78;;;;;;;;;;2097906;28;20040;-57
2022/05/06 03:02:57;;;;;;;6.68;3.70;;;;;;;;;;2098190;28;20124;-48
2022/05/06 03:03:59;;;;;;;8.00;3.22;;;;;;;;;;2101166;28;20055;-47
2022/05/06 03:05:00;;;;;;;6.32;3.83;;;;;;;;;;2106264;28;20048;-48
2022/05/06 03:06:01;;;;;;;10.15;3.80;;;;;;;;;;2106186;28;20565;-47
2022/05/06 03:07:06;;;;;;;7.30;3.38;;;;;;;;;;2106215;28;20044;-48
2022/05/06 03:08:08;;;;;;;9.18;3.95;;;;;;;;;;2106328;28;20182;-47
2022/05/06 03:09:09;;;;;;;7.53;3.67;;;;;;;;;;2106176;28;20122;-48
2022/05/06 03:10:11;;;;;;;5.78;3.38;;;;;;;;;;2106218;28;20123;-48
2022/05/06 03:11:12;;;;;;;6.65;3.40;;;;;;;;;;2106284;28;20076;-48
2022/05/06 03:12:16;;;;;;;5.75;2.90;;;;;;;;;;2106053;28;20396;-48
2022/05/06 03:13:17;;;;;;;9.48;3.85;;;;;;;;;;2106269;28;20072;-49
2022/05/06 03:14:18;;;;;;;7.35;3.78;;;;;;;;;;2105999;28;20105;-47
2022/05/06 03:15:19;;;;;;;6.80;3.40;;;;;;;;;;2106347;28;20086;-47
2022/05/06 03:16:20;;;;;;;5.10;2.80;;;;;;;;;;2106299;28;20078;-48
2022/05/06 03:17:21;;;;;;;5.53;2.97;;;;;;;;;;2106399;28;20202;-47
2022/05/06 03:18:22;;;;;;;9.50;3.08;;;;;;;;;;2105599;28;20052;-50
2022/05/06 03:19:23;;;;;;;9.75;4.22;;;;;;;;;;2097814;28;20124;-48
2022/05/06 03:20:25;;;;;;;7.67;3.53;;;;;;;;;;2097683;28;20056;-47
2022/05/06 03:21:25;;;;;;;7.28;3.30;;;;;;;;;;2097893;28;20097;-47
2022/05/06 03:22:27;;;;;;;8.07;3.70;;;;;;;;;;2097726;28;20452;-50
2022/05/06 03:23:28;;;;;;;7.88;3.30;;;;;;;;;;2097599;28;20500;-47
2022/05/06 03:24:29;;;;;;;6.32;3.35;;;;;;;;;;2097959;28;20182;-47
2022/05/06 03:25:31;;;;;;;7.15;3.10;;;;;;;;;;2097686;28;20557;-47
2022/05/06 03:26:32;;;;;;;6.38;3.25;;;;;;;;;;2098072;28;20136;-57
2022/05/06 03:28:56;;;;;;;8.43;3.58;;;;;;;;;;2097764;28;20170;-47
2022/05/06 03:29:57;;;;;;;5.57;3.42;;;;;;;;;;2097766;28;20131;-49
2022/05/06 03:31:00;;;;;;;8.05;3.45;;;;;;;;;;2097870;28;20093;-47
2022/05/06 03:32:01;;;;;;;7.53;3.65;;;;;;;;;;2097751;28;20080;-47
2022/05/06 03:33:02;;;;;;;5.60;3.10;;;;;;;;;;2097700;28;20048;-47
2022/05/06 03:34:04;;;;;;;8.23;3.47;;;;;;;;;;2097553;28;20413;-48
2022/05/06 03:35:06;;;;;;;7.63;3.55;;;;;;;;;;2097630;28;20040;-48
2022/05/06 03:36:08;;;;;;;8.75;3.53;;;;;;;;;;2097912;28;20127;-47
2022/05/06 03:37:09;;;;;;;9.93;3.92;;;;;;;;;;2097790;28;20122;-47
2022/05/06 03:38:10;;;;;;;6.82;3.33;;;;;;;;;;2097794;28;20129;-47
2022/05/06 03:39:11;;;;;;;8.75;3.47;;;;;;;;;;2097547;28;20123;-47
2022/05/06 03:40:13;;;;;;;7.80;3.88;;;;;;;;;;2097536;28;20127;-48
2022/05/06 03:41:14;;;;;;;7.97;3.17;;;;;;;;;;2097574;28;20147;-47
2022/05/06 03:42:15;;;;;;;7.40;3.33;;;;;;;;;;2097699;28;20138;-48
2022/05/06 03:43:17;;;;;;;6.40;3.50;;;;;;;;;;2097683;28;20136;-49
2022/05/06 03:44:18;;;;;;;5.15;3.47;;;;;;;;;;2097559;28;20563;-47
2022/05/06 03:45:19;;;;;;;8.88;3.80;;;;;;;;;;2097420;28;20071;-48
2022/05/06 03:46:20;;;;;;;9.95;3.90;;;;;;;;;;2097754;28;20048;-57
2022/05/06 03:47:21;;;;;;;6.70;3.97;;;;;;;;;;2097605;28;20524;-57
2022/05/06 03:48:24;;;;;;;8.30;4.15;;;;;;;;;;2097516;28;20289;-57
2022/05/06 03:49:26;;;;;;;8.63;4.45;;;;;;;;;;2097470;28;20056;-57
2022/05/06 03:51:47;;;;;;;8.75;4.03;;;;;;;;;;2097575;28;20089;-57
2022/05/06 03:52:48;;;;;;;9.02;4.03;;;;;;;;;;2097503;28;20182;-57
2022/05/06 03:53:50;;;;;;;8.05;3.95;;;;;;;;;;2097474;28;20737;-57
2022/05/06 03:54:52;;;;;;;8.05;4.05;;;;;;;;;;2097585;28;20045;-57
2022/05/06 03:55:53;;;;;;;9.30;3.67;;;;;;;;;;2097721;28;20620;-57
2022/05/06 03:56:54;;;;;;;7.30;3.25;;;;;;;;;;2097520;28;20098;-57
2022/05/06 03:57:56;;;;;;;9.30;3.13;;;;;;;;;;2097551;28;20044;-57
2022/05/06 03:58:57;;;;;;;6.53;3.42;;;;;;;;;;2097352;28;20488;-57
2022/05/06 03:59:58;;;;;;;7.47;3.53;;;;;;;;;;2098807;28;20054;-57
2022/05/06 04:01:00;;;;;;;9.50;3.55;;;;;;;;;;2105960;28;20047;-57
2022/05/06 04:02:01;;;;;;;7.22;3.38;;;;;;;;;;2105956;28;20040;-58
2022/05/06 04:03:02;;;;;;;5.67;3.30;;;;;;;;;;2105983;28;20675;-57
2022/05/06 04:04:07;;;;;;;6.63;3.60;;;;;;;;;;2105712;28;20075;-57
2022/05/06 04:05:08;;;;;;;5.75;3.28;;;;;;;;;;2105928;28;20064;-57
2022/05/06 04:06:13;;;;;;;5.22;2.88;;;;;;;;;;2105789;28;20076;-58
2022/05/06 04:07:14;;;;;;;6.32;2.97;;;;;;;;;;2105824;28;20396;-57
2022/05/06 04:08:15;;;;;;;7.65;3.25;;;;;;;;;;2106118;28;20127;-48
2022/05/06 04:09:18;;;;;;;4.97;3.03;;;;;;;;;;2105777;28;20048;-49
2022/05/06 04:10:19;;;;;;;7.90;3.17;;;;;;;;;;2105769;28;20135;-47
2022/05/06 04:11:20;;;;;;;5.77;3.10;;;;;;;;;;2105789;28;20051;-47
2022/05/06 04:12:22;;;;;;;5.00;2.63;;;;;;;;;;2105885;28;20055;-49
2022/05/06 04:13:23;;;;;;;;;;;;;;;;;;2106547;28;20131;-47
2022/05/06 04:14:25;;;;;;;6.93;3.05;;;;;;;;;;2105777;28;20015;-48
2022/05/06 04:15:26;;;;;;;8.45;3.40;;;;;;;;;;2105786;28;20484;-48
2022/05/06 04:16:27;;;;;;;6.78;2.72;;;;;;;;;;2105837;28;20123;-47
2022/05/06 04:17:29;;;;;;;6.95;2.85;;;;;;;;;;2105630;28;20075;-48
2022/05/06 04:18:30;;;;;;;7.32;3.03;;;;;;;;;;2104202;28;20489;-49
2022/05/06 04:19:31;;;;;;;8.60;3.23;;;;;;;;;;2097608;28;20098;-49
2022/05/06 04:23:29;;;;;;;6.82;3.03;;;;;;;;;;2097328;28;20097;-47
2022/05/06 04:24:30;;;;;;;5.05;2.10;;;;;;;;;;2097490;28;20553;-48
2022/05/06 04:25:31;;;;;;;6.05;3.00;;;;;;;;;;2097345;28;20390;-48
2022/05/06 04:26:32;;;;;;;5.40;2.45;;;;;;;;;;2097320;28;20124;-48
2022/05/06 04:27:33;;;;;;;8.18;2.83;;;;;;;;;;2097419;28;20154;-48
2022/05/06 04:28:35;;;;;;;6.60;2.75;;;;;;;;;;2097231;28;20201;-50
2022/05/06 04:29:37;;;;;;;6.22;2.90;;;;;;;;;;2097420;28;20135;-47
2022/05/06 04:30:38;;;;;;;9.52;2.70;;;;;;;;;;2097292;28;20131;-47
2022/05/06 04:31:39;;;;;;;5.55;2.47;;;;;;;;;;2097507;28;20127;-48
2022/05/06 04:32:40;;;;;;;3.90;2.47;;;;;;;;;;2097415;28;20050;-49
2022/05/06 04:33:42;;;;;;;6.50;2.90;;;;;;;;;;2097406;28;20320;-48
2022/05/06 04:34:42;;;;;;;5.40;2.30;;;;;;;;;;2097501;28;20058;-48
2022/05/06 04:35:44;;;;;;;5.40;2.67;;;;;;;;;;2097288;28;20063;-49
2022/05/06 04:36:45;;;;;;;4.10;2.10;;;;;;;;;;2097399;28;20055;-47
2022/05/06 04:37:46;;;;;;;5.10;1.80;;;;;;;;;;2097300;28;20410;-47
2022/05/06 04:38:47;;;;;;;6.85;2.40;;;;;;;;;;2097237;28;20565;-47
2022/05/06 04:39:48;;;;;;;3.67;2.08;;;;;;;;;;2097510;28;20215;-47
2022/05/06 04:40:49;;;;;;;4.17;2.37;;;;;;;;;;2097085;28;20545;-47
2022/05/06 04:41:50;;;;;;;5.28;2.05;;;;;;;;;;2097493;28;20150;-50
2022/05/06 04:42:51;;;;;;;4.72;2.08;;;;;;;;;;2097431;28;20120;-47
2022/05/06 04:43:52;;;;;;;3.03;2.05;;;;;;;;;;2097137;28;20044;-50
2022/05/06 04:44:54;;;;;;;3.97;2.07;;;;;;;;;;2097319;28;20076;-47
2022/05/06 04:45:56;;;;;;;3.67;1.92;;;;;;;;;;2097197;28;20544;-48
2022/05/06 04:46:57;;;;;;;2.80;1.98;;;;;;;;;;2097337;28;20178;-47
2022/05/06 04:47:58;;;;;;;6.38;2.47;;;;;;;;;;2097637;28;20409;-47
2022/05/06 04:48:59;;;;;;;4.70;2.08;;;;;;;;;;2097298;28;20068;-46
2022/05/06 04:50:00;;;;;;;4.50;2.07;;;;;;;;;;2097518;28;20128;-57
2022/05/06 04:51:01;;;;;;;5.53;2.30;;;;;;;;;;2097451;28;20133;-47
2022/05/06 04:52:02;;;;;;;4.65;1.90;;;;;;;;;;2097158;28;20040;-47
2022/05/06 04:53:07;;;;;;;4.72;2.30;;;;;;;;;;2097435;28;20124;-58
2022/05/06 04:54:11;;;;;;;3.97;2.15;;;;;;;;;;2097198;28;20174;-58
2022/05/06 04:55:12;;;;;;;5.38;1.88;;;;;;;;;;2097054;28;20564;-57
2022/05/06 04:56:13;;;;;;;6.07;1.80;;;;;;;;;;2098516;28;20320;-58
2022/05/06 04:57:14;;;;;;;4.30;2.33;;;;;;;;;;2105474;28;20078;-58
2022/05/06 04:58:16;;;;;;;5.55;2.05;;;;;;;;;;2105580;28;20288;-58
2022/05/06 04:59:17;;;;;;;2.83;1.83;;;;;;;;;;2105389;28;20136;-58
2022/05/06 05:00:19;;;;;;;3.22;1.65;;;;;;;;;;2105475;28;20074;-58
2022/05/06 05:01:21;;;;;;;5.57;2.35;;;;;;;;;;2105580;28;20123;-58
2022/05/06 05:02:22;;;;;;;3.88;2.08;;;;;;;;;;2105484;28;20050;-56
2022/05/06 05:03:23;;;;;;;6.68;2.40;;;;;;;;;;2105625;28;20071;-58
2022/05/06 05:04:27;;;;;;;4.25;2.22;;;;;;;;;;2105535;28;20156;-58
2022/05/06 05:05:29;;;;;;;3.85;1.98;;;;;;;;;;2105421;28;20401;-58
2022/05/06 05:06:31;;;;;;;4.25;1.75;;;;;;;;;;2105515;28;20112;-58
2022/05/06 05:07:32;;;;;;;3.75;1.73;;;;;;;;;;2105781;28;20048;-47
2022/05/06 05:08:33;;;;;;;4.63;1.95;;;;;;;;;;2105646;28;20082;-47
2022/05/06 05:09:34;;;;;;;3.60;2.15;;;;;;;;;;2105413;28;20578;-47
2022/05/06 05:10:36;;;;;;;6.37;2.17;;;;;;;;;;2105375;28;20097;-48
2022/05/06 05:11:37;;;;;;;3.88;2.30;;;;;;;;;;2105384;28;20125;-47
2022/05/06 05:12:38;;;;;;;3.75;2.05;;;;;;;;;;2105716;28;20132;-47
2022/05/06 05:13:39;;;;;;;4.63;2.22;;;;;;;;;;2105322;28;20458;-47
2022/05/06 05:14:41;;;;;;;4.13;1.60;;;;;;;;;;2105526;28;20161;-48
2022/05/06 05:15:43;;;;;;;4.82;2.50;;;;;;;;;;2105625;28;20428;-58
2022/05/06 05:16:44;;;;;;;4.53;2.03;;;;;;;;;;2105531;28;20131;-59
2022/05/06 05:17:46;;;;;;;4.72;2.13;;;;;;;;;;2105330;28;20056;-59
2022/05/06 05:18:47;;;;;;;3.53;2.10;;;;;;;;;;2101421;28;20045;-59
2022/05/06 05:19:48;;;;;;;4.85;2.20;;;;;;;;;;2097161;28;20048;-59
2022/05/06 05:20:50;;;;;;;4.47;2.07;;;;;;;;;;2096935;28;20040;-59
2022/05/06 05:21:50;;;;;;;3.85;1.98;;;;;;;;;;2098491;28;20089;-59
2022/05/06 05:22:52;;;;;;;4.13;2.23;;;;;;;;;;2098362;28;20048;-59
2022/05/06 05:23:53;;;;;;;3.55;2.17;;;;;;;;;;2098503;28;20080;-59
2022/05/06 05:24:54;;;;;;;4.47;1.80;;;;;;;;;;2098537;28;20045;-60
2022/05/06 05:25:55;;;;;;;4.00;2.13;;;;;;;;;;2098736;28;20048;-47
2022/05/06 05:26:57;;;;;;;4.05;2.22;;;;;;;;;;2098532;28;20044;-47
2022/05/06 05:28:03;;;;;;;5.07;2.00;;;;;;;;;;2098482;28;20393;-47
2022/05/06 05:29:04;;;;;;;4.88;2.35;;;;;;;;;;2098489;28;20045;-47
2022/05/06 05:30:06;;;;;;;3.03;2.00;;;;;;;;;;2098525;28;20048;-48
2022/05/06 05:31:08;;;;;;;5.72;2.45;;;;;;;;;;2098470;28;20123;-47
2022/05/06 05:32:09;;;;;;;5.45;2.30;;;;;;;;;;2098706;28;20094;-48
2022/05/06 05:33:10;;;;;;;3.17;1.80;;;;;;;;;;2098741;28;20228;-48
2022/05/06 05:34:12;;;;;;;4.97;2.13;;;;;;;;;;2098789;28;20098;-47
2022/05/06 05:35:13;;;;;;;3.15;1.75;;;;;;;;;;2098370;28;20285;-48
2022/05/06 05:36:14;;;;;;;4.00;1.95;;;;;;;;;;2098363;28;20490;-47
2022/05/06 05:37:15;;;;;;;4.43;2.83;;;;;;;;;;2098424;28;20052;-47
2022/05/06 05:38:16;;;;;;;5.38;2.38;;;;;;;;;;2098331;28;20044;-47
2022/05/06 05:39:17;;;;;;;4.97;2.30;;;;;;;;;;2098515;28;20497;-59
2022/05/06 05:40:18;;;;;;;4.72;2.13;;;;;;;;;;2098422;28;20610;-60
2022/05/06 05:41:20;;;;;;;5.78;2.25;;;;;;;;;;2098403;28;20102;-60
2022/05/06 05:42:21;;;;;;;5.47;2.45;;;;;;;;;;2098446;28;20123;-59
2022/05/06 05:48:40;;;;;;;4.65;2.03;;;;;;;;;;2098533;28;20400;-60
2022/05/06 05:49:41;;;;;;;8.48;2.20;;;;;;;;;;2098482;28;20048;-60
2022/05/06 05:50:43;;;;;;;4.07;2.30;;;;;;;;;;2098295;28;20051;-60
2022/05/06 05:51:44;;;;;;;5.95;2.53;;;;;;;;;;2098300;28;20056;-60
2022/05/06 05:52:46;;;;;;;5.83;1.90;;;;;;;;;;2102041;28;20184;-59
2022/05/06 05:53:47;;;;;;;2.97;1.60;;;;;;;;;;2106633;28;20055;-60
2022/05/06 05:54:48;;;;;;;3.83;1.75;;;;;;;;;;2106778;28;20127;-60
2022/05/06 05:55:49;;;;;;;3.03;1.60;;;;;;;;;;2106625;28;20055;-60
2022/05/06 05:56:50;;;;;;;2.57;1.63;;;;;;;;;;2106820;28;20232;-60
2022/05/06 05:57:51;;;;;;;5.65;2.45;;;;;;;;;;2107006;28;20138;-47
2022/05/06 05:58:52;;;;;;;4.13;1.80;;;;;;;;;;2106486;28;20040;-46
2022/05/06 05:59:53;;;;;;;3.28;1.67;;;;;;;;;;2106796;28;20216;-47
2022/05/06 06:00:55;;;;;;;2.47;1.30;;;;;;;;;;2106552;28;20044;-47
2022/05/06 06:01:56;;;;;;;4.20;1.67;;;;;;;;;;2106739;28;20140;-48
2022/05/06 06:02:59;;;;;;;3.85;2.00;;;;;;;;;;2106593;28;20557;-47
2022/05/06 06:04:00;;;;;;;2.47;1.65;;;;;;;;;;2106498;28;20440;-48
2022/05/06 06:05:08;;;;;;;2.55;1.67;;;;;;;;;;2106519;28;20509;-47
2022/05/06 06:06:09;;;;;;;3.83;1.70;;;;;;;;;;2106883;28;20119;-60
2022/05/06 06:07:10;;;;;;;3.03;1.67;;;;;;;;;;2106773;28;20044;-60
2022/05/06 06:08:11;;;;;;;2.45;1.60;;;;;;;;;;2106785;28;20125;-60
2022/05/06 06:09:13;;;;;;;3.22;1.55;;;;;;;;;;2106593;28;20126;-60
2022/05/06 06:10:14;;;;;;;6.05;1.70;;;;;;;;;;2106727;28;20131;-60
2022/05/06 06:11:15;;;;;;;2.45;1.50;;;;;;;;;;2106756;28;20396;-61
2022/05/06 06:12:16;;;;;;;4.60;2.30;;;;;;;;;;2106481;28;20626;-60
2022/05/06 06:13:17;;;;;;;2.90;1.70;;;;;;;;;;2106688;28;20060;-60
2022/05/06 06:14:18;;;;;;;2.45;1.25;;;;;;;;;;2106463;28;20595;-60
2022/05/06 06:15:19;;;;;;;2.80;1.57;;;;;;;;;;2106683;28;20131;-60
2022/05/06 06:16:20;;;;;;;3.67;1.40;;;;;;;;;;2106533;28;20430;-60
2022/05/06 06:17:22;;;;;;;2.75;1.40;;;;;;;;;;2106574;28;20139;-60
2022/05/06 06:18:26;;;;;;;2.90;1.40;;;;;;;;;;2105838;28;20427;-60
2022/05/06 06:19:28;;;;;;;2.85;1.60;;;;;;;;;;2098170;28;20048;-60
2022/05/06 06:20:29;;;;;;;3.95;1.70;;;;;;;;;;2098310;28;20135;-60
2022/05/06 06:21:30;;;;;;;3.30;1.10;;;;;;;;;;2098342;28;20049;-60
2022/05/06 06:22:31;;;;;;;2.00;1.50;;;;;;;;;;2098448;28;20049;-60
2022/05/06 06:23:32;;;;;;;4.38;1.40;;;;;;;;;;2098170;28;20504;-60
2022/05/06 06:24:33;;;;;;;3.83;2.13;;;;;;;;;;2098203;28;20059;-60
2022/05/06 06:25:35;;;;;;;2.97;1.30;;;;;;;;;;2098151;28;20051;-60
2022/05/06 06:26:36;;;;;;;3.95;1.90;;;;;;;;;;2098308;28;20155;-60